createdAt,value
2022-11-23T00:02:35.654Z,69.90
2022-11-23T00:05:21.168Z,67.40
2022-11-23T00:07:59.724Z,73.20
2022-11-23T00:10:31.460Z,70.00
2022-11-23T00:13:05.878Z,74.50
2022-11-23T00:15:35.936Z,80.00
2022-11-23T00:18:19.861Z,76.10
2022-11-23T00:20:57.112Z,78.50
2022-11-23T00:23:27.426Z,82.60
2022-11-23T00:26:01.703Z,76.40
2022-11-23T00:28:35.181Z,80.30
2022-11-23T00:31:07.945Z,77.80
2022-11-23T00:33:41.596Z,78.60
2022-11-23T00:36:17.645Z,76.80
2022-11-23T00:38:47.739Z,77.50
2022-11-23T00:41:26.342Z,84.90
2022-11-23T00:43:58.489Z,79.20
2022-11-23T00:46:31.268Z,80.00
2022-11-23T00:49:13.139Z,75.50
2022-11-23T00:51:51.357Z,77.20
2022-11-23T00:54:26.252Z,73.90
2022-11-23T00:56:55.394Z,76.70
2022-11-23T00:59:35.593Z,77.10
2022-11-23T01:02:07.558Z,84.10
2022-11-23T01:04:48.218Z,76.60
2022-11-23T01:07:43.068Z,76.50
2022-11-23T01:10:17.953Z,74.40
2022-11-23T01:12:53.773Z,86.20
2022-11-23T01:16:24.721Z,82.00
2022-11-23T01:18:38.929Z,77.20
2022-11-23T01:21:15.844Z,79.20
2022-11-23T01:23:50.251Z,77.80
2022-11-23T01:26:23.787Z,71.90
2022-11-23T01:29:09.278Z,73.30
2022-11-23T01:32:07.417Z,76.80
2022-11-23T01:37:41.541Z,72.90
2022-11-23T01:40:46.626Z,71.50
2022-11-23T01:42:13.877Z,78.00
2022-11-23T01:45:39.868Z,74.80
2022-11-23T01:48:22.139Z,80.70
2022-11-23T01:51:00.177Z,87.00
2022-11-23T01:53:37.870Z,87.00
2022-11-23T01:56:31.840Z,77.70
2022-11-23T01:59:20.564Z,81.20
2022-11-23T02:02:09.128Z,81.70
2022-11-23T02:04:59.815Z,80.30
2022-11-23T02:07:35.258Z,80.00
2022-11-23T02:10:29.292Z,73.30
2022-11-23T02:13:08.580Z,71.90
2022-11-23T02:15:38.666Z,72.90
2022-11-23T02:18:23.163Z,72.70
2022-11-23T02:21:02.539Z,74.30
2022-11-23T02:24:23.771Z,71.20
2022-11-23T02:27:13.035Z,70.70
2022-11-23T02:29:48.215Z,68.60
2022-11-23T02:32:30.690Z,65.60
2022-11-23T02:35:08.919Z,67.20
2022-11-23T02:37:54.075Z,67.10
2022-11-23T02:40:35.730Z,73.00
2022-11-23T02:43:11.548Z,70.30
2022-11-23T02:46:03.578Z,70.30
2022-11-23T02:48:45.407Z,67.10
2022-11-23T02:51:26.482Z,69.50
2022-11-23T02:54:11.297Z,68.40
2022-11-23T02:56:50.610Z,74.90
2022-11-23T02:59:23.970Z,68.00
2022-11-23T03:01:56.417Z,68.00
2022-11-23T03:04:43.384Z,68.40
2022-11-23T03:07:19.468Z,64.50
2022-11-23T03:10:18.439Z,70.70
2022-11-23T03:13:10.145Z,65.40
2022-11-23T03:15:57.213Z,68.00
2022-11-23T03:18:36.184Z,61.10
2022-11-23T03:21:15.413Z,62.50
2022-11-23T03:23:51.386Z,65.80
2022-11-23T03:26:41.119Z,64.00
2022-11-23T03:29:29.017Z,65.90
2022-11-23T03:32:05.004Z,63.00
2022-11-23T03:34:48.747Z,63.40
2022-11-23T03:37:30.748Z,62.30
2022-11-23T03:40:16.062Z,70.70
2022-11-23T03:43:07.461Z,75.90
2022-11-23T03:45:37.145Z,65.30
2022-11-23T03:48:18.739Z,62.20
2022-11-23T03:50:55.167Z,65.70
2022-11-23T03:53:42.693Z,63.60
2022-11-23T03:56:41.609Z,71.70
2022-11-23T03:59:16.715Z,75.70
2022-11-23T04:01:58.241Z,81.00
2022-11-23T04:04:39.221Z,93.00
2022-11-23T04:08:00.323Z,73.50
2022-11-23T04:11:03.104Z,71.40
2022-11-23T04:13:45.152Z,78.10
2022-11-23T04:16:34.686Z,68.00
2022-11-23T04:19:11.715Z,66.40
2022-11-23T04:21:48.231Z,67.10
2022-11-23T04:24:30.886Z,74.70
2022-11-23T04:27:06.095Z,73.00
2022-11-23T04:29:45.036Z,118.30
2022-11-23T04:32:21.821Z,132.20
2022-11-23T04:35:03.164Z,164.40
2022-11-23T04:37:37.104Z,219.40
2022-11-23T04:40:13.121Z,149.50
2022-11-23T04:42:51.499Z,85.20
2022-11-23T04:45:24.312Z,72.00
2022-11-23T04:47:59.513Z,108.50
2022-11-23T04:50:43.046Z,113.80
2022-11-23T04:53:20.231Z,100.70
2022-11-23T04:55:51.825Z,107.40
2022-11-23T04:58:26.782Z,81.60
2022-11-23T05:01:26.953Z,75.80
2022-11-23T05:04:23.344Z,117.70
2022-11-23T05:07:16.786Z,103.90
2022-11-23T05:09:53.952Z,85.60
2022-11-23T05:12:32.193Z,84.10
2022-11-23T05:15:29.144Z,69.50
2022-11-23T05:18:31.000Z,71.90
2022-11-23T05:21:05.188Z,90.20
2022-11-23T05:23:47.908Z,87.50
2022-11-23T05:26:39.809Z,80.90
2022-11-23T05:29:15.843Z,74.10
2022-11-23T05:31:55.134Z,72.00
2022-11-23T05:34:36.705Z,71.50
2022-11-23T05:37:25.585Z,75.30
2022-11-23T05:40:11.912Z,80.00
2022-11-23T05:42:55.560Z,81.70
2022-11-23T05:45:39.591Z,88.90
2022-11-23T05:48:46.659Z,86.70
2022-11-23T05:51:45.083Z,90.20
2022-11-23T05:54:21.245Z,71.30
2022-11-23T05:57:24.645Z,72.00
2022-11-23T06:00:06.404Z,85.90
2022-11-23T06:02:49.671Z,78.60
2022-11-23T06:05:49.303Z,69.20
2022-11-23T06:08:36.116Z,68.50
2022-11-23T06:11:39.047Z,63.50
2022-11-23T06:14:19.582Z,69.80
2022-11-23T06:17:06.019Z,74.20
2022-11-23T06:19:57.833Z,90.90
2022-11-23T06:23:21.011Z,87.10
2022-11-23T06:25:55.836Z,91.70
2022-11-23T06:28:29.243Z,93.10
2022-11-23T06:31:07.270Z,75.00
2022-11-23T06:33:36.929Z,75.90
2022-11-23T06:36:07.278Z,68.80
2022-11-23T06:38:46.944Z,78.90
2022-11-23T06:41:19.692Z,73.70
2022-11-23T06:43:49.913Z,89.20
2022-11-23T06:46:51.461Z,72.60
2022-11-23T06:49:29.613Z,85.20
2022-11-23T06:52:17.064Z,74.40
2022-11-23T06:54:49.274Z,76.40
2022-11-23T06:57:20.302Z,75.90
2022-11-23T07:00:13.288Z,75.60
2022-11-23T07:03:01.075Z,77.10
2022-11-23T07:05:52.812Z,76.60
2022-11-23T07:08:45.996Z,78.30
2022-11-23T07:11:39.743Z,88.60
2022-11-23T07:14:16.369Z,112.50
2022-11-23T07:17:04.850Z,77.70
2022-11-23T07:19:49.786Z,80.50
2022-11-23T07:22:37.374Z,83.00
2022-11-23T07:25:20.479Z,78.90
2022-11-23T07:28:08.090Z,77.10
2022-11-23T07:31:06.125Z,66.80
2022-11-23T07:33:50.848Z,176.60
2022-11-23T07:36:52.917Z,64.20
2022-11-23T07:39:19.803Z,66.80
2022-11-23T07:42:30.533Z,64.60
2022-11-23T07:45:00.051Z,58.70
2022-11-23T07:47:43.468Z,62.90
2022-11-23T07:50:27.424Z,62.70
2022-11-23T07:52:58.288Z,64.30
2022-11-23T07:55:35.655Z,70.30
2022-11-23T07:58:12.049Z,71.80
2022-11-23T08:00:55.979Z,58.00
2022-11-23T08:03:52.508Z,70.90
2022-11-23T08:06:35.259Z,63.40
2022-11-23T08:09:26.123Z,62.70
2022-11-23T08:11:58.577Z,67.00
2022-11-23T08:14:36.987Z,73.00
2022-11-23T08:17:16.346Z,71.30
2022-11-23T08:19:53.332Z,66.80
2022-11-23T08:22:36.749Z,60.60
2022-11-23T08:25:22.190Z,90.00
2022-11-23T08:28:07.404Z,73.30
2022-11-23T08:30:43.519Z,74.40
2022-11-23T08:33:17.027Z,74.50
2022-11-23T08:35:53.418Z,81.30
2022-11-23T08:38:27.351Z,67.00
2022-11-23T08:41:01.381Z,66.60
2022-11-23T08:43:35.044Z,58.10
2022-11-23T08:46:37.928Z,69.60
2022-11-23T08:49:20.521Z,68.80
2022-11-23T08:52:01.580Z,63.00
2022-11-23T08:54:49.435Z,59.50
2022-11-23T08:57:34.268Z,66.80
2022-11-23T09:00:08.089Z,60.00
2022-11-23T09:02:42.650Z,65.10
2022-11-23T09:05:13.567Z,67.00
2022-11-23T09:07:47.867Z,62.70
2022-11-23T09:10:31.905Z,69.40
2022-11-23T09:13:15.598Z,63.50
2022-11-23T09:16:10.961Z,60.10
2022-11-23T09:18:52.493Z,56.10
2022-11-23T09:21:35.923Z,54.90
2022-11-23T09:24:14.800Z,66.20
2022-11-23T09:27:06.680Z,59.40
2022-11-23T09:29:50.308Z,60.90
2022-11-23T09:32:42.226Z,68.20
2022-11-23T09:35:23.079Z,63.90
2022-11-23T09:38:05.385Z,66.60
2022-11-23T09:40:44.239Z,60.90
2022-11-23T09:43:59.650Z,64.60
2022-11-23T09:47:12.379Z,64.30
2022-11-23T09:50:16.131Z,70.90
2022-11-23T09:53:15.371Z,66.00
2022-11-23T09:56:01.249Z,68.10
2022-11-23T09:58:50.578Z,61.30
2022-11-23T10:01:38.061Z,62.10
2022-11-23T10:04:38.375Z,69.60
2022-11-23T10:08:15.846Z,75.30
2022-11-23T10:11:26.828Z,79.10
2022-11-23T10:14:54.821Z,69.40
2022-11-23T10:17:57.076Z,71.50
2022-11-23T10:20:52.260Z,61.90
2022-11-23T10:24:11.730Z,67.90
2022-11-23T10:26:59.256Z,77.40
2022-11-23T10:29:46.594Z,62.80
2022-11-23T10:32:56.025Z,69.70
2022-11-23T10:35:40.336Z,65.00
2022-11-23T10:38:31.102Z,67.90
2022-11-23T10:41:34.307Z,64.20
2022-11-23T10:44:23.770Z,67.50
2022-11-23T10:47:39.564Z,70.50
2022-11-23T10:50:45.449Z,71.00
2022-11-23T10:53:48.841Z,73.90
2022-11-23T10:57:16.803Z,113.60
2022-11-23T11:03:03.529Z,251.00
2022-11-23T11:06:08.709Z,96.70
2022-11-23T11:09:06.499Z,91.70
2022-11-23T11:11:45.619Z,70.10
2022-11-23T11:14:25.001Z,73.90
2022-11-23T11:17:00.440Z,73.30
2022-11-23T11:19:37.488Z,98.60
2022-11-23T11:22:36.340Z,80.00
2022-11-23T11:25:26.663Z,97.20
2022-11-23T11:27:57.099Z,78.20
2022-11-23T11:31:05.639Z,91.40
2022-11-23T11:34:27.144Z,70.80
2022-11-23T11:37:40.532Z,69.70
2022-11-23T11:40:48.631Z,69.50
2022-11-23T11:43:36.209Z,100.60
2022-11-23T11:48:04.621Z,107.60
2022-11-23T11:49:49.918Z,83.20
2022-11-23T11:52:51.995Z,80.70
2022-11-23T11:56:05.127Z,84.60
2022-11-23T12:01:46.408Z,80.70
2022-11-23T12:04:40.543Z,85.00
2022-11-23T12:07:28.948Z,78.50
2022-11-23T12:10:47.033Z,93.80
2022-11-23T12:13:25.949Z,76.40
2022-11-23T12:16:26.452Z,75.80
2022-11-23T12:19:20.373Z,78.00
2022-11-23T12:22:24.173Z,84.20
2022-11-23T12:25:49.476Z,75.80
2022-11-23T12:29:31.945Z,70.20
2022-11-23T12:32:43.190Z,74.80
2022-11-23T12:35:51.521Z,70.60
2022-11-23T12:38:33.176Z,71.80
2022-11-23T12:41:07.814Z,67.20
2022-11-23T12:44:00.049Z,65.10
2022-11-23T12:46:59.304Z,63.70
2022-11-23T12:49:39.712Z,63.80
2022-11-23T12:53:01.546Z,64.40
2022-11-23T12:55:52.753Z,68.90
2022-11-23T12:58:37.708Z,66.10
2022-11-23T13:02:03.743Z,63.00
2022-11-23T13:05:26.610Z,73.10
2022-11-23T13:08:45.657Z,62.70
2022-11-23T13:11:45.389Z,60.00
2022-11-23T13:14:36.096Z,60.70
2022-11-23T13:17:44.501Z,57.00
2022-11-23T13:20:42.156Z,58.60
2022-11-23T13:23:12.714Z,57.70
2022-11-23T13:25:51.346Z,57.00
2022-11-23T13:28:32.933Z,48.20
2022-11-23T13:31:18.530Z,55.20
2022-11-23T13:33:57.274Z,54.10
2022-11-23T13:37:11.679Z,55.70
2022-11-23T13:39:46.279Z,52.40
2022-11-23T13:42:15.926Z,61.40
2022-11-23T13:44:45.407Z,55.40
2022-11-23T13:47:20.935Z,52.90
2022-11-23T13:50:10.107Z,53.20
2022-11-23T13:52:54.744Z,57.70
2022-11-23T13:55:40.049Z,67.50
2022-11-23T13:58:26.569Z,66.70
2022-11-23T14:01:01.248Z,58.50
2022-11-23T14:03:52.299Z,55.90
2022-11-23T14:06:57.405Z,61.20
2022-11-23T14:09:36.666Z,69.80
2022-11-23T14:12:54.485Z,63.30
2022-11-23T14:15:35.776Z,71.50
2022-11-23T14:18:40.479Z,57.00
2022-11-23T14:21:40.072Z,56.00
2022-11-23T14:24:58.551Z,58.70
2022-11-23T14:28:26.326Z,63.10
2022-11-23T14:31:33.573Z,56.20
2022-11-23T14:34:44.799Z,56.60
2022-11-23T14:37:41.720Z,58.10
2022-11-23T14:40:25.446Z,57.20
2022-11-23T14:42:57.620Z,61.70
2022-11-23T14:45:34.826Z,50.40
2022-11-23T14:48:35.446Z,66.60
2022-11-23T14:51:11.912Z,61.70
2022-11-23T14:53:49.225Z,67.00
2022-11-23T14:56:45.447Z,69.80
2022-11-23T14:59:20.390Z,66.50
2022-11-23T15:02:20.226Z,66.60
2022-11-23T15:05:19.267Z,78.70
2022-11-23T15:08:19.777Z,90.80
2022-11-23T15:11:22.327Z,92.00
2022-11-23T15:14:08.769Z,87.90
2022-11-23T15:16:53.004Z,99.40
2022-11-23T15:19:45.529Z,101.80
2022-11-23T15:22:29.594Z,97.00
2022-11-23T15:25:12.469Z,86.70
2022-11-23T15:27:54.915Z,76.20
2022-11-23T15:30:43.450Z,79.70
2022-11-23T15:33:23.184Z,66.60
2022-11-23T15:35:58.041Z,71.10
2022-11-23T15:38:39.872Z,69.60
2022-11-23T15:41:24.254Z,59.80
2022-11-23T15:44:03.334Z,57.40
2022-11-23T15:46:39.829Z,55.40
2022-11-23T15:49:18.571Z,51.00
2022-11-23T15:51:51.301Z,51.40
2022-11-23T15:54:28.643Z,52.10
2022-11-23T15:57:00.600Z,58.40
2022-11-23T15:59:45.622Z,55.50
2022-11-23T16:02:26.813Z,70.50
2022-11-23T16:05:17.754Z,66.70
2022-11-23T16:08:01.196Z,64.70
2022-11-23T16:16:13.603Z,63.10
2022-11-23T16:18:48.047Z,67.30
2022-11-23T16:21:20.299Z,61.50
2022-11-23T16:23:56.282Z,60.30
2022-11-23T16:26:33.138Z,62.00
2022-11-23T16:29:02.572Z,61.70
2022-11-23T16:31:40.236Z,64.60
2022-11-23T16:34:19.540Z,71.10
2022-11-23T16:36:49.022Z,89.70
2022-11-23T16:39:18.042Z,71.80
2022-11-23T16:41:46.977Z,67.30
2022-11-23T16:44:16.265Z,68.90
2022-11-23T16:46:47.691Z,69.40
2022-11-23T16:49:21.712Z,71.40
2022-11-23T16:51:57.202Z,71.20
2022-11-23T16:54:26.602Z,64.00
2022-11-23T16:56:55.462Z,66.90
2022-11-23T16:59:26.061Z,72.40
2022-11-23T17:01:57.504Z,78.90
2022-11-23T17:04:27.664Z,81.30
2022-11-23T17:06:56.594Z,81.00
2022-11-23T17:09:25.485Z,75.10
2022-11-23T17:11:54.470Z,78.10
2022-11-23T17:14:29.587Z,81.40
2022-11-23T17:17:02.387Z,77.00
2022-11-23T17:19:31.915Z,76.00
2022-11-23T17:22:01.286Z,73.90
2022-11-23T17:24:30.481Z,74.40
2022-11-23T17:26:59.973Z,78.00
2022-11-23T17:29:28.973Z,85.80
2022-11-23T17:31:59.420Z,83.80
2022-11-23T17:34:28.303Z,86.60
2022-11-23T17:36:57.544Z,82.40
2022-11-23T17:39:28.365Z,88.90
2022-11-23T17:42:01.582Z,78.20
2022-11-23T17:44:33.770Z,78.00
2022-11-23T17:47:02.908Z,82.40
2022-11-23T17:49:32.650Z,87.90
2022-11-23T17:52:01.842Z,78.70
2022-11-23T17:54:30.844Z,77.20
2022-11-23T17:56:59.961Z,79.80
2022-11-23T17:59:30.307Z,78.90
2022-11-23T18:01:59.531Z,77.70
2022-11-23T18:04:28.410Z,77.10
2022-11-23T18:06:57.431Z,78.00
2022-11-23T18:09:26.566Z,85.10
2022-11-23T18:11:55.651Z,68.00
2022-11-23T18:14:28.818Z,80.30
2022-11-23T18:16:57.795Z,80.20
2022-11-23T18:19:27.296Z,79.90
2022-11-23T18:21:56.535Z,77.40
2022-11-23T18:24:25.359Z,89.90
2022-11-23T18:26:54.653Z,87.80
2022-11-23T18:29:23.672Z,75.00
2022-11-23T18:31:53.662Z,76.90
2022-11-23T18:34:23.300Z,72.40
2022-11-23T18:36:52.260Z,82.10
2022-11-23T18:39:21.246Z,91.50
2022-11-23T18:41:50.150Z,80.70
2022-11-23T18:44:19.208Z,84.80
2022-11-23T18:46:48.179Z,78.70
2022-11-23T18:49:17.050Z,84.00
2022-11-23T18:51:46.214Z,83.70
2022-11-23T18:54:15.073Z,78.80
2022-11-23T18:56:43.993Z,80.40
2022-11-23T18:59:28.978Z,76.80
2022-11-23T19:02:03.418Z,79.90
2022-11-23T19:04:34.383Z,76.20
2022-11-23T19:07:03.351Z,85.00
2022-11-23T19:09:32.746Z,83.10
2022-11-23T19:12:01.946Z,85.60
2022-11-23T19:14:30.853Z,85.60
2022-11-23T19:16:59.795Z,85.00
2022-11-23T19:19:28.817Z,89.70
2022-11-23T19:21:58.341Z,93.50
2022-11-23T19:24:27.229Z,92.90
2022-11-23T19:26:56.141Z,83.80
2022-11-23T19:29:26.652Z,96.90
2022-11-23T19:31:55.614Z,101.60
2022-11-23T19:34:24.590Z,99.20
2022-11-23T19:36:53.663Z,101.50
2022-11-23T19:39:22.543Z,96.50
2022-11-23T19:41:51.671Z,89.50
2022-11-23T19:44:20.695Z,85.60
2022-11-23T19:46:49.686Z,87.90
2022-11-23T19:49:18.782Z,88.80
2022-11-23T19:51:51.069Z,85.20
2022-11-23T19:56:55.219Z,84.50
2022-11-23T19:59:25.745Z,86.50
2022-11-23T20:01:54.804Z,86.90
2022-11-23T20:04:23.673Z,91.30
2022-11-23T20:06:52.728Z,88.40
2022-11-23T20:09:22.826Z,93.30
2022-11-23T20:11:52.398Z,91.30
2022-11-23T20:14:21.334Z,81.30
2022-11-23T20:16:50.359Z,92.10
2022-11-23T20:19:19.358Z,85.80
2022-11-23T20:21:48.266Z,87.20
2022-11-23T20:24:17.365Z,89.10
2022-11-23T20:26:46.398Z,89.10
2022-11-23T20:29:15.454Z,88.30
2022-11-23T20:31:44.915Z,92.70
2022-11-23T20:34:19.530Z,95.00
2022-11-23T20:36:49.689Z,96.50
2022-11-23T20:39:19.110Z,98.50
2022-11-23T20:41:49.993Z,95.30
2022-11-23T20:44:19.097Z,98.60
2022-11-23T20:47:04.081Z,94.20
2022-11-23T20:49:33.351Z,101.60
2022-11-23T20:52:02.566Z,99.60
2022-11-23T20:54:34.560Z,109.90
2022-11-23T20:57:03.876Z,103.20
2022-11-23T20:59:33.106Z,104.90
2022-11-23T21:02:02.302Z,100.00
2022-11-23T21:04:31.575Z,98.60
2022-11-23T21:07:00.889Z,103.80
2022-11-23T21:09:32.599Z,101.00
2022-11-23T21:12:20.466Z,98.00
2022-11-23T21:14:49.378Z,98.50
2022-11-23T21:17:18.332Z,102.80
2022-11-23T21:19:47.520Z,100.40
2022-11-23T21:22:18.692Z,114.60
2022-11-23T21:24:47.888Z,110.40
2022-11-23T21:27:17.294Z,115.90
2022-11-23T21:29:46.548Z,130.40
2022-11-23T21:32:15.402Z,109.10
2022-11-23T21:34:44.371Z,107.50
2022-11-23T21:37:13.301Z,101.20
2022-11-23T21:39:43.215Z,104.20
2022-11-23T21:44:43.310Z,104.60
2022-11-23T21:47:12.513Z,99.50
2022-11-23T21:49:41.451Z,102.20
2022-11-23T21:52:10.346Z,102.40
2022-11-23T21:54:40.014Z,104.20
2022-11-23T21:57:11.106Z,101.30
2022-11-23T21:59:39.861Z,111.40
2022-11-23T22:02:12.217Z,119.50
2022-11-23T22:04:41.299Z,108.80
2022-11-23T22:07:10.435Z,114.70
2022-11-23T22:09:39.842Z,96.80
2022-11-23T22:12:09.221Z,90.70
2022-11-23T22:14:38.551Z,89.00
2022-11-23T22:17:07.630Z,92.50
2022-11-23T22:19:36.619Z,82.70
2022-11-23T22:22:07.729Z,76.80
2022-11-23T22:24:36.669Z,85.80
2022-11-23T22:27:06.309Z,84.20
2022-11-23T22:29:35.836Z,81.60
2022-11-23T22:32:05.319Z,86.00
2022-11-23T22:34:35.670Z,84.10
2022-11-23T22:37:10.191Z,79.00
2022-11-23T22:39:39.900Z,90.20
2022-11-23T22:42:09.125Z,87.00
2022-11-23T22:44:39.471Z,87.60
2022-11-23T22:47:08.539Z,91.80
2022-11-23T22:49:38.389Z,85.40
2022-11-23T22:52:07.343Z,79.30
2022-11-23T22:54:36.425Z,84.60
2022-11-23T22:57:07.226Z,86.00
2022-11-23T22:59:36.214Z,88.30
2022-11-23T23:02:05.154Z,80.00
2022-11-23T23:04:34.636Z,82.30
2022-11-23T23:07:03.861Z,92.00
2022-11-23T23:09:33.925Z,82.70
2022-11-23T23:12:03.453Z,92.10
2022-11-23T23:14:32.667Z,96.00
2022-11-23T23:17:02.190Z,90.90
2022-11-23T23:19:32.046Z,84.80
2022-11-23T23:22:00.986Z,97.60
2022-11-23T23:24:29.865Z,88.10
2022-11-23T23:26:59.286Z,91.40
2022-11-23T23:29:28.233Z,92.50
2022-11-23T23:31:57.165Z,92.90
2022-11-23T23:34:26.119Z,90.80
2022-11-23T23:36:55.599Z,86.30
2022-11-23T23:39:24.552Z,98.30
2022-11-23T23:41:53.510Z,95.20
2022-11-23T23:44:22.377Z,89.50
2022-11-23T23:46:51.226Z,89.90
2022-11-23T23:49:20.091Z,91.80
2022-11-23T23:51:51.784Z,96.00
2022-11-23T23:54:20.821Z,94.40
2022-11-23T23:56:49.856Z,93.20
2022-11-23T23:59:23.725Z,90.90
